Time;durP1;ratioP1;P1;durP2;ratioP2;P2;SDS_P1;SDS_P2;PMS_P1;PMS_P2;Temp;Humidity;BMP_temperature;BMP_pressure;BME280_temperature;BME280_humidity;BME280_pressure;Samples;Min_cycle;Max_cycle;Signal;HPM_P1;HPM_P2
2022/02/28 00:00:28;;;;;;;8.47;6.63;;;7.70;41.60;;;;;;5031473;28;20523;-49
2022/02/28 00:02:54;;;;;;;7.90;7.00;;;7.70;41.80;;;;;;5030956;28;20308;-44
2022/02/28 00:05:19;;;;;;;12.90;6.57;;;7.60;42.80;;;;;;5031033;28;20511;-46
2022/02/28 00:07:45;;;;;;;10.80;6.83;;;7.50;42.50;;;;;;5030801;28;20189;-45
2022/02/28 00:10:11;;;;;;;9.20;6.87;;;7.40;42.70;;;;;;5031100;28;20193;-45
2022/02/28 00:12:37;;;;;;;10.57;6.80;;;7.40;42.60;;;;;;5030912;28;20253;-46
2022/02/28 00:15:07;;;;;;;7.20;6.50;;;7.40;42.60;;;;;;5030501;28;20432;-49
2022/02/28 00:17:33;;;;;;;8.80;6.83;;;7.40;42.60;;;;;;5030981;28;20846;-44
2022/02/28 00:20:00;;;;;;;6.97;6.23;;;7.40;42.60;;;;;;5030516;28;20485;-47
2022/02/28 00:22:25;;;;;;;8.63;6.50;;;7.40;42.60;;;;;;5028879;28;20506;-48
2022/02/28 00:24:51;;;;;;;8.77;6.73;;;7.40;42.60;;;;;;5030118;28;20578;-45
2022/02/28 00:27:17;;;;;;;15.20;9.30;;;7.40;42.60;;;;;;5030866;28;20207;-48
2022/02/28 00:29:43;;;;;;;21.53;14.10;;;7.40;42.90;;;;;;5030358;28;20205;-48
2022/02/28 00:32:08;;;;;;;14.83;11.13;;;7.40;43.10;;;;;;5031638;28;20197;-46
2022/02/28 00:34:34;;;;;;;14.57;10.40;;;7.40;43.30;;;;;;5030468;28;20235;-44
2022/02/28 00:37:00;;;;;;;10.90;9.20;;;7.40;43.30;;;;;;5030347;28;20197;-49
2022/02/28 00:39:27;;;;;;;13.87;8.90;;;7.40;43.30;;;;;;5030218;28;20189;-48
2022/02/28 00:41:52;;;;;;;11.07;8.03;;;7.40;43.20;;;;;;5045915;28;20435;-45
2022/02/28 00:44:18;;;;;;;13.40;8.27;;;7.40;43.20;;;;;;5042552;28;20427;-47
2022/02/28 00:46:43;;;;;;;13.93;8.63;;;7.40;43.20;;;;;;5030208;28;20228;-52
2022/02/28 00:49:09;;;;;;;16.40;8.40;;;7.30;43.20;;;;;;5028435;28;20194;-46
2022/02/28 00:51:35;;;;;;;11.10;7.87;;;7.30;43.40;;;;;;5030742;28;20200;-46
2022/02/28 00:54:00;;;;;;;9.53;7.73;;;7.30;43.50;;;;;;5030163;28;20193;-46
2022/02/28 00:56:26;;;;;;;10.80;8.37;;;7.30;43.50;;;;;;5030528;28;20190;-44
2022/02/28 00:58:52;;;;;;;11.60;8.00;;;7.20;43.60;;;;;;5029961;28;20294;-48
2022/02/28 01:01:17;;;;;;;11.50;7.73;;;7.20;43.60;;;;;;5030358;28;20284;-48
2022/02/28 01:03:43;;;;;;;9.17;7.30;;;7.10;43.60;;;;;;5029934;28;20982;-45
2022/02/28 01:06:09;;;;;;;10.60;7.00;;;7.10;43.70;;;;;;5029759;28;20276;-45
2022/02/28 01:08:34;;;;;;;10.93;7.10;;;7.10;43.60;;;;;;5028576;28;20201;-44
2022/02/28 01:11:00;;;;;;;15.40;7.30;;;7.00;43.50;;;;;;5030193;28;20244;-45
2022/02/28 01:13:25;;;;;;;9.23;8.10;;;7.00;43.80;;;;;;5029860;28;20216;-44
2022/02/28 01:15:51;;;;;;;9.17;7.13;;;6.90;44.00;;;;;;5028150;28;20201;-46
2022/02/28 01:18:17;;;;;;;10.17;7.17;;;6.90;44.10;;;;;;5029553;28;20723;-45
2022/02/28 01:20:43;;;;;;;9.93;7.23;;;6.80;44.10;;;;;;5030271;28;20201;-44
2022/02/28 01:23:08;;;;;;;10.70;7.37;;;6.90;44.30;;;;;;5029663;28;20193;-45
2022/02/28 01:25:34;;;;;;;8.20;7.20;;;6.90;44.20;;;;;;5029844;28;20423;-49
2022/02/28 01:28:00;;;;;;;11.23;7.60;;;7.00;44.10;;;;;;5029580;28;20197;-46
2022/02/28 01:30:25;;;;;;;8.50;6.87;;;7.00;44.10;;;;;;5030875;28;20200;-45
2022/02/28 01:32:51;;;;;;;13.80;7.40;;;7.00;44.20;;;;;;5042370;28;20200;-47
2022/02/28 01:35:17;;;;;;;9.30;7.03;;;7.00;44.10;;;;;;5030985;28;20197;-45
2022/02/28 01:37:43;;;;;;;14.63;8.33;;;6.90;44.00;;;;;;5033113;28;20312;-45
2022/02/28 01:40:12;;;;;;;10.20;7.67;;;6.90;44.00;;;;;;5034829;28;20660;-45
2022/02/28 01:42:38;;;;;;;8.33;6.53;;;7.00;43.80;;;;;;5050782;28;20459;-46
2022/02/28 01:45:04;;;;;;;9.00;6.50;;;7.00;43.70;;;;;;5039267;28;20428;-46
2022/02/28 01:47:29;;;;;;;13.40;7.50;;;6.90;43.60;;;;;;5033515;28;20201;-47
2022/02/28 01:49:55;;;;;;;10.07;6.80;;;6.90;43.60;;;;;;5032930;28;20470;-45
2022/02/28 01:52:24;;;;;;;11.03;7.47;;;6.80;43.80;;;;;;5033627;28;20200;-47
2022/02/28 01:54:50;;;;;;;8.77;6.87;;;6.80;43.90;;;;;;5032485;28;20201;-46
2022/02/28 01:57:16;;;;;;;9.27;7.53;;;6.70;43.90;;;;;;5033408;28;20478;-46
2022/02/28 01:59:42;;;;;;;10.43;7.40;;;6.70;43.80;;;;;;5032642;28;20216;-47
2022/02/28 02:02:08;;;;;;;9.73;6.87;;;6.70;43.90;;;;;;5033369;28;20428;-45
2022/02/28 02:04:35;;;;;;;7.77;6.47;;;6.60;43.90;;;;;;5032671;28;20197;-44
2022/02/28 02:07:01;;;;;;;10.47;7.70;;;6.60;43.90;;;;;;5032666;28;20504;-50
2022/02/28 02:09:26;;;;;;;12.47;7.10;;;6.50;44.20;;;;;;5030994;28;20511;-45
2022/02/28 02:11:52;;;;;;;8.97;6.37;;;6.50;44.50;;;;;;5033188;28;20185;-44
2022/02/28 02:14:18;;;;;;;9.50;6.83;;;6.50;44.50;;;;;;5032676;28;20193;-45
2022/02/28 02:16:43;;;;;;;8.60;6.83;;;6.50;44.50;;;;;;5032810;28;20243;-49
2022/02/28 02:19:09;;;;;;;11.50;7.40;;;6.40;44.70;;;;;;5032187;28;20232;-49
2022/02/28 02:21:35;;;;;;;8.70;6.70;;;6.40;45.00;;;;;;5033145;28;21952;-47
2022/02/28 02:24:01;;;;;;;9.70;6.53;;;6.40;45.10;;;;;;5032448;28;20428;-47
2022/02/28 02:26:26;;;;;;;10.93;7.63;;;6.40;45.20;;;;;;5032707;28;20221;-44
2022/02/28 02:28:52;;;;;;;10.03;7.20;;;6.30;45.20;;;;;;5032401;28;20259;-50
2022/02/28 02:31:18;;;;;;;8.23;7.27;;;6.30;45.40;;;;;;5034172;28;20235;-45
2022/02/28 02:33:43;;;;;;;9.40;7.23;;;6.30;45.60;;;;;;5032194;28;20195;-46
2022/02/28 02:36:09;;;;;;;8.80;7.33;;;6.20;45.80;;;;;;5031153;28;20229;-50
2022/02/28 02:38:37;;;;;;;11.40;7.20;;;6.20;45.90;;;;;;5031484;28;20216;-45
2022/02/28 02:41:06;;;;;;;11.10;6.23;;;6.20;45.80;;;;;;5040965;28;20423;-46
2022/02/28 02:43:33;;;;;;;8.60;7.13;;;6.30;45.60;;;;;;5050065;28;20479;-48
2022/02/28 02:45:59;;;;;;;10.80;6.97;;;6.30;45.50;;;;;;5031414;28;20531;-47
2022/02/28 02:48:26;;;;;;;8.50;7.53;;;6.30;45.40;;;;;;5032058;28;20515;-46
2022/02/28 02:50:53;;;;;;;8.33;7.17;;;6.20;45.30;;;;;;5032467;28;20198;-44
2022/02/28 02:53:19;;;;;;;11.03;7.80;;;6.20;45.30;;;;;;5031999;28;20812;-45
2022/02/28 02:55:46;;;;;;;11.77;7.27;;;6.20;45.20;;;;;;5031640;28;20424;-45
2022/02/28 02:58:13;;;;;;;9.70;6.80;;;6.20;45.00;;;;;;5031338;28;20283;-46
2022/02/28 03:00:41;;;;;;;9.73;6.67;;;6.10;44.90;;;;;;5032119;28;20436;-46
2022/02/28 03:03:14;;;;;;;8.97;6.33;;;6.10;45.20;;;;;;5031100;28;20438;-44
2022/02/28 03:05:39;;;;;;;9.33;7.23;;;5.90;45.10;;;;;;5030361;28;20424;-45
2022/02/28 03:08:05;;;;;;;7.90;6.70;;;5.70;45.90;;;;;;5031198;28;20463;-46
2022/02/28 03:10:30;;;;;;;10.43;7.50;;;5.80;46.10;;;;;;5031756;28;20185;-46
2022/02/28 03:12:56;;;;;;;9.67;6.27;;;5.80;46.00;;;;;;5031141;28;20208;-45
2022/02/28 03:15:22;;;;;;;8.77;6.67;;;5.70;45.90;;;;;;5031528;28;20216;-44
2022/02/28 03:17:47;;;;;;;7.90;6.13;;;5.70;46.00;;;;;;5031014;28;20225;-46
2022/02/28 03:20:13;;;;;;;10.87;6.90;;;5.70;46.10;;;;;;5031417;28;20686;-46
2022/02/28 03:22:38;;;;;;;7.60;6.50;;;5.70;46.10;;;;;;5031323;28;20198;-45
2022/02/28 03:25:05;;;;;;;8.67;6.60;;;5.70;46.00;;;;;;5031078;28;20280;-46
2022/02/28 03:27:31;;;;;;;8.57;6.70;;;5.70;45.90;;;;;;5031592;28;20200;-46
2022/02/28 03:29:57;;;;;;;10.67;6.70;;;5.70;45.70;;;;;;5031046;28;20480;-51
2022/02/28 03:32:23;;;;;;;12.50;7.40;;;5.70;45.70;;;;;;5030711;28;20808;-44
2022/02/28 03:34:48;;;;;;;9.30;6.37;;;5.70;45.90;;;;;;5030593;28;20193;-45
2022/02/28 03:37:14;;;;;;;10.07;6.70;;;5.60;45.80;;;;;;5031242;28;20577;-47
2022/02/28 03:39:40;;;;;;;9.53;7.17;;;5.60;45.70;;;;;;5030916;28;20189;-48
2022/02/28 03:42:06;;;;;;;8.57;7.30;;;5.60;45.70;;;;;;5047857;28;20252;-44
2022/02/28 03:44:32;;;;;;;15.27;6.87;;;5.50;45.80;;;;;;5041123;28;20280;-47
2022/02/28 03:46:57;;;;;;;7.93;6.33;;;5.50;46.00;;;;;;5031143;28;20784;-44
2022/02/28 03:49:23;;;;;;;8.10;6.37;;;5.50;46.50;;;;;;5030794;28;20670;-45
2022/02/28 03:51:48;;;;;;;9.90;7.00;;;5.50;46.60;;;;;;5031189;28;20224;-49
2022/02/28 03:54:14;;;;;;;11.17;7.80;;;5.50;46.70;;;;;;5030476;28;20196;-48
2022/02/28 03:56:42;;;;;;;8.93;8.03;;;5.50;46.70;;;;;;5029697;28;20593;-46
2022/02/28 03:59:09;;;;;;;10.10;6.80;;;5.50;46.70;;;;;;5028648;28;20574;-50
2022/02/28 04:01:35;;;;;;;10.57;8.00;;;5.50;46.70;;;;;;5030970;28;20432;-47
2022/02/28 04:04:02;;;;;;;8.90;7.17;;;5.60;46.60;;;;;;5030200;28;20424;-49
2022/02/28 04:06:29;;;;;;;9.93;7.50;;;5.60;46.40;;;;;;5030447;28;20431;-47
2022/02/28 04:08:55;;;;;;;9.60;6.60;;;5.60;46.40;;;;;;5030525;28;20823;-46
2022/02/28 04:11:21;;;;;;;10.30;7.47;;;5.50;46.30;;;;;;5030690;28;20783;-46
2022/02/28 04:13:46;;;;;;;8.37;6.57;;;5.50;46.30;;;;;;5030232;28;20432;-49
2022/02/28 04:16:12;;;;;;;8.10;6.60;;;5.50;46.10;;;;;;5030246;28;20196;-45
2022/02/28 04:18:38;;;;;;;10.37;7.20;;;5.50;46.20;;;;;;5030163;28;20239;-46
2022/02/28 04:21:03;;;;;;;9.17;7.40;;;5.40;46.00;;;;;;5030279;28;20199;-46
2022/02/28 04:23:29;;;;;;;10.80;7.23;;;5.40;46.10;;;;;;5030106;28;20198;-46
2022/02/28 04:25:54;;;;;;;9.60;6.60;;;5.30;46.50;;;;;;5028774;28;20216;-45
2022/02/28 04:28:20;;;;;;;13.00;7.57;;;5.20;46.90;;;;;;5030014;28;20185;-46
2022/02/28 04:30:46;;;;;;;8.80;7.30;;;5.10;47.10;;;;;;5031010;28;20196;-46
2022/02/28 04:33:11;;;;;;;12.13;7.83;;;5.20;47.20;;;;;;5029934;28;20197;-44
2022/02/28 04:35:37;;;;;;;9.17;7.67;;;5.20;47.10;;;;;;5030072;28;20204;-46
2022/02/28 04:38:05;;;;;;;9.30;7.50;;;5.10;47.20;;;;;;5029821;28;20225;-44
2022/02/28 04:40:31;;;;;;;9.50;7.60;;;5.10;47.60;;;;;;5033656;28;20200;-47
2022/02/28 04:42:57;;;;;;;8.70;6.20;;;5.10;47.70;;;;;;5049779;28;20463;-45
2022/02/28 04:45:22;;;;;;;11.50;7.30;;;5.10;47.50;;;;;;5033371;28;20980;-49
2022/02/28 04:47:48;;;;;;;9.37;6.90;;;5.10;47.30;;;;;;5028426;28;20197;-45
2022/02/28 04:50:14;;;;;;;8.77;6.73;;;5.10;47.10;;;;;;5030176;28;20229;-46
2022/02/28 04:52:39;;;;;;;8.70;6.53;;;5.10;47.10;;;;;;5028628;28;20185;-45
2022/02/28 04:55:05;;;;;;;7.20;6.10;;;5.20;47.20;;;;;;5030210;28;20200;-47
2022/02/28 04:57:42;;;;;;;10.47;6.77;;;5.10;47.20;;;;;;5030461;28;20711;-45
2022/02/28 05:00:09;;;;;;;8.30;6.90;;;5.10;47.20;;;;;;5030682;28;20466;-44
2022/02/28 05:02:34;;;;;;;12.10;6.67;;;5.10;47.30;;;;;;5030649;28;20458;-45
2022/02/28 05:05:00;;;;;;;10.93;8.00;;;5.10;47.30;;;;;;5029536;28;20428;-45
2022/02/28 05:07:27;;;;;;;9.47;7.07;;;5.10;47.30;;;;;;5030799;28;20580;-47
2022/02/28 05:09:52;;;;;;;8.90;6.83;;;5.00;47.20;;;;;;5033410;28;20189;-48
2022/02/28 05:12:18;;;;;;;14.70;6.90;;;5.10;47.20;;;;;;5034548;28;20462;-45
2022/02/28 05:14:43;;;;;;;12.67;7.13;;;5.00;47.20;;;;;;5033453;28;20263;-47
2022/02/28 05:17:09;;;;;;;8.70;6.87;;;5.10;47.30;;;;;;5034268;28;20196;-49
2022/02/28 05:19:35;;;;;;;7.60;6.50;;;5.10;47.30;;;;;;5031872;28;20250;-46
2022/02/28 05:22:03;;;;;;;7.63;6.53;;;5.00;47.30;;;;;;5034161;28;20193;-49
2022/02/28 05:24:29;;;;;;;11.50;7.30;;;5.00;47.40;;;;;;5033109;28;20201;-46
2022/02/28 05:26:55;;;;;;;11.07;7.43;;;5.00;47.30;;;;;;5034040;28;20428;-49
2022/02/28 05:29:21;;;;;;;8.97;6.80;;;5.00;47.30;;;;;;5033339;28;20776;-44
2022/02/28 05:31:46;;;;;;;10.50;7.67;;;5.00;47.50;;;;;;5034011;28;20191;-45
2022/02/28 05:34:12;;;;;;;10.20;7.37;;;5.00;47.30;;;;;;5033225;28;20201;-49
2022/02/28 05:36:38;;;;;;;10.63;8.67;;;5.00;47.30;;;;;;5033344;28;20555;-49
2022/02/28 05:39:03;;;;;;;10.50;7.00;;;5.00;47.40;;;;;;5032819;28;20224;-44
2022/02/28 05:41:29;;;;;;;11.47;7.27;;;5.10;47.80;;;;;;5045412;28;20656;-46
2022/02/28 05:43:55;;;;;;;10.57;6.77;;;5.00;47.70;;;;;;5048395;28;20546;-46
2022/02/28 05:46:20;;;;;;;9.80;7.40;;;5.10;47.60;;;;;;5031499;28;20197;-49
2022/02/28 05:48:46;;;;;;;9.30;7.70;;;4.90;48.00;;;;;;5033110;28;20276;-47
2022/02/28 05:51:12;;;;;;;13.13;8.03;;;4.90;48.30;;;;;;5033479;28;20193;-44
2022/02/28 05:53:38;;;;;;;10.43;7.70;;;4.90;48.20;;;;;;5033014;28;20835;-45
2022/02/28 05:56:03;;;;;;;12.67;7.93;;;5.00;48.00;;;;;;5033156;28;20212;-46
2022/02/28 05:58:29;;;;;;;12.00;8.53;;;5.00;47.80;;;;;;5032432;28;20229;-44
2022/02/28 06:00:55;;;;;;;9.30;7.33;;;5.00;47.60;;;;;;5033403;28;20424;-44
2022/02/28 06:03:20;;;;;;;9.60;8.00;;;5.00;47.60;;;;;;5032621;28;20193;-44
2022/02/28 06:05:46;;;;;;;11.37;9.13;;;4.90;47.50;;;;;;5032969;28;20197;-45
2022/02/28 06:08:12;;;;;;;10.33;7.67;;;4.90;47.60;;;;;;5032597;28;20200;-46
2022/02/28 06:10:37;;;;;;;10.80;7.80;;;4.90;47.60;;;;;;5033050;28;20272;-44
2022/02/28 06:13:03;;;;;;;13.00;8.67;;;4.80;47.60;;;;;;5031601;28;20704;-46
2022/02/28 06:15:29;;;;;;;7.93;7.13;;;4.90;47.60;;;;;;5032166;28;20197;-44
2022/02/28 06:17:55;;;;;;;8.67;7.47;;;4.90;47.40;;;;;;5032412;28;20246;-49
2022/02/28 06:20:21;;;;;;;10.80;7.57;;;4.90;47.50;;;;;;5031776;28;20493;-45
2022/02/28 06:22:46;;;;;;;10.80;7.53;;;4.90;47.40;;;;;;5032241;28;20842;-46
2022/02/28 06:25:12;;;;;;;9.80;6.73;;;4.90;47.50;;;;;;5032519;28;20189;-45
2022/02/28 06:27:37;;;;;;;8.77;7.17;;;4.90;47.50;;;;;;5032602;28;20189;-45
2022/02/28 06:30:04;;;;;;;10.00;7.57;;;4.80;47.60;;;;;;5032473;28;20327;-45
2022/02/28 06:32:30;;;;;;;10.73;8.30;;;4.80;47.90;;;;;;5032678;28;20821;-47
2022/02/28 06:34:55;;;;;;;11.90;8.57;;;4.80;48.10;;;;;;5032011;28;20431;-44
2022/02/28 06:37:21;;;;;;;10.67;8.33;;;4.90;48.10;;;;;;5032679;28;20217;-44
2022/02/28 06:39:47;;;;;;;12.30;8.47;;;4.90;48.20;;;;;;5031703;28;20431;-45
2022/02/28 06:42:13;;;;;;;11.77;8.90;;;4.80;48.70;;;;;;5048152;28;20474;-46
2022/02/28 06:44:38;;;;;;;11.60;8.00;;;4.80;49.10;;;;;;5041103;28;20236;-44
2022/02/28 06:47:04;;;;;;;12.20;9.20;;;4.90;49.00;;;;;;5032584;28;20675;-44
2022/02/28 06:49:30;;;;;;;14.80;9.40;;;5.00;48.90;;;;;;5032024;28;20197;-48
2022/02/28 06:51:55;;;;;;;13.13;8.70;;;5.10;48.60;;;;;;5032548;28;20189;-45
2022/02/28 06:54:21;;;;;;;12.90;8.93;;;5.20;48.40;;;;;;5031542;28;20193;-44
2022/02/28 06:56:46;;;;;;;15.10;9.50;;;5.40;48.20;;;;;;5032124;28;20232;-47
2022/02/28 06:59:12;;;;;;;10.40;8.90;;;5.50;47.90;;;;;;5031737;28;20245;-46
2022/02/28 07:01:39;;;;;;;11.80;8.80;;;5.70;47.80;;;;;;5032548;28;20189;-43
2022/02/28 07:04:07;;;;;;;12.70;8.63;;;5.70;47.40;;;;;;5031554;28;20201;-47
2022/02/28 07:06:33;;;;;;;14.00;9.47;;;5.90;47.60;;;;;;5032034;28;20946;-50
2022/02/28 07:09:00;;;;;;;13.97;9.27;;;5.90;47.60;;;;;;5029667;28;20915;-44
2022/02/28 07:11:25;;;;;;;15.50;9.70;;;6.00;47.90;;;;;;5032142;28;20911;-44
2022/02/28 07:13:51;;;;;;;15.23;9.90;;;6.30;47.60;;;;;;5031330;28;20543;-50
2022/02/28 07:16:17;;;;;;;13.80;9.63;;;6.60;47.20;;;;;;5031449;28;20738;-48
2022/02/28 07:18:43;;;;;;;12.33;9.37;;;6.90;46.60;;;;;;5031245;28;20494;-47
2022/02/28 07:21:09;;;;;;;13.53;9.60;;;7.10;45.90;;;;;;5031765;28;20431;-44
2022/02/28 07:23:34;;;;;;;12.07;9.27;;;7.30;45.70;;;;;;5031253;28;20193;-44
2022/02/28 07:26:00;;;;;;;13.87;10.23;;;7.50;45.30;;;;;;5031151;28;20196;-48
2022/02/28 07:28:26;;;;;;;13.30;9.97;;;7.70;44.70;;;;;;5031476;28;20284;-47
2022/02/28 07:30:52;;;;;;;15.60;11.90;;;7.90;44.40;;;;;;5032868;28;20193;-45
2022/02/28 07:33:18;;;;;;;12.90;9.60;;;8.10;44.00;;;;;;5031347;28;20435;-46
2022/02/28 07:35:44;;;;;;;13.80;11.03;;;8.30;43.80;;;;;;5029424;28;20833;-46
2022/02/28 07:38:10;;;;;;;14.17;10.57;;;8.40;43.50;;;;;;5031090;28;20586;-44
2022/02/28 07:40:36;;;;;;;12.33;9.57;;;8.50;43.40;;;;;;5035740;28;20768;-45
2022/02/28 07:43:02;;;;;;;12.83;10.40;;;8.70;43.30;;;;;;5050634;28;20781;-46
2022/02/28 07:45:28;;;;;;;14.63;9.60;;;8.90;42.90;;;;;;5033460;28;20197;-48
2022/02/28 07:47:54;;;;;;;14.83;9.33;;;8.90;42.80;;;;;;5031099;28;20935;-47
2022/02/28 07:50:21;;;;;;;14.07;9.90;;;8.90;42.90;;;;;;5031256;28;20424;-45
2022/02/28 07:52:47;;;;;;;10.77;9.60;;;8.90;43.60;;;;;;5030737;28;20614;-46
2022/02/28 07:55:13;;;;;;;17.10;10.37;;;8.90;42.90;;;;;;5030603;28;20451;-44
2022/02/28 07:57:39;;;;;;;12.80;9.37;;;9.00;43.00;;;;;;5031080;28;20283;-46
2022/02/28 08:00:06;;;;;;;17.43;9.97;;;9.30;42.80;;;;;;5031104;28;20640;-45
2022/02/28 08:02:32;;;;;;;11.70;9.63;;;9.40;42.30;;;;;;5029651;28;20702;-45
2022/02/28 08:04:57;;;;;;;12.27;9.53;;;9.50;42.00;;;;;;5030232;28;20420;-46
2022/02/28 08:07:23;;;;;;;11.63;9.47;;;9.70;41.90;;;;;;5031045;28;20194;-44
2022/02/28 08:09:49;;;;;;;11.83;9.37;;;9.80;41.60;;;;;;5030489;28;20250;-46
2022/02/28 08:12:14;;;;;;;12.00;9.47;;;9.80;41.30;;;;;;5031195;28;20194;-49
2022/02/28 08:14:40;;;;;;;11.77;9.00;;;9.90;41.20;;;;;;5030275;28;20185;-48
2022/02/28 08:17:07;;;;;;;17.77;8.80;;;9.90;41.40;;;;;;5030944;28;20203;-45
2022/02/28 08:19:32;;;;;;;18.27;11.03;;;9.80;40.70;;;;;;5029997;28;20603;-48
2022/02/28 08:21:58;;;;;;;11.83;8.83;;;9.70;40.90;;;;;;5031092;28;20504;-46
2022/02/28 08:24:24;;;;;;;12.07;9.30;;;9.40;40.90;;;;;;5030188;28;20196;-46
2022/02/28 08:26:49;;;;;;;12.83;9.13;;;9.30;41.50;;;;;;5030708;28;20243;-48
2022/02/28 08:29:15;;;;;;;11.70;9.63;;;9.50;41.90;;;;;;5028263;28;20466;-50
2022/02/28 08:31:40;;;;;;;16.30;9.77;;;9.70;41.60;;;;;;5031960;28;20652;-47
2022/02/28 08:34:06;;;;;;;12.10;9.50;;;9.80;41.60;;;;;;5029668;28;20200;-50
2022/02/28 08:36:33;;;;;;;13.30;9.93;;;9.90;41.50;;;;;;5030570;28;20193;-50
2022/02/28 08:38:59;;;;;;;15.10;10.13;;;10.00;40.00;;;;;;5030060;28;20229;-49
2022/02/28 08:41:25;;;;;;;15.67;10.37;;;9.80;40.40;;;;;;5042017;28;20973;-46
2022/02/28 08:43:50;;;;;;;10.10;8.90;;;9.80;39.90;;;;;;5049373;28;20525;-50
2022/02/28 08:46:16;;;;;;;11.70;9.97;;;9.70;39.90;;;;;;5037101;28;20220;-48
2022/02/28 08:48:42;;;;;;;13.80;10.10;;;9.70;40.20;;;;;;5035217;28;20703;-47
2022/02/28 08:51:08;;;;;;;14.40;9.23;;;9.80;40.30;;;;;;5037318;28;20687;-47
2022/02/28 08:53:33;;;;;;;11.57;9.10;;;9.80;41.20;;;;;;5036692;28;20431;-48
2022/02/28 08:55:59;;;;;;;15.67;10.10;;;10.00;39.60;;;;;;5035016;28;20193;-47
2022/02/28 08:58:24;;;;;;;12.20;9.80;;;10.10;38.90;;;;;;5036672;28;20228;-51
2022/02/28 09:00:51;;;;;;;12.90;9.50;;;10.20;39.10;;;;;;5037128;28;20656;-50
2022/02/28 09:03:17;;;;;;;12.73;9.33;;;10.20;38.10;;;;;;5036216;28;20259;-51
2022/02/28 09:05:42;;;;;;;11.57;9.27;;;10.20;38.10;;;;;;5036815;28;20879;-52
2022/02/28 09:08:08;;;;;;;10.50;8.60;;;10.40;38.00;;;;;;5036350;28;20185;-47
2022/02/28 09:10:33;;;;;;;11.83;9.20;;;10.40;37.70;;;;;;5036938;28;20228;-51
2022/02/28 09:12:59;;;;;;;14.50;9.77;;;10.40;37.60;;;;;;5036617;28;20350;-48
2022/02/28 09:15:24;;;;;;;12.20;9.23;;;10.50;37.60;;;;;;5036622;28;20201;-49
2022/02/28 09:17:50;;;;;;;12.30;8.60;;;10.70;37.60;;;;;;5036078;28;20225;-51
2022/02/28 09:20:16;;;;;;;14.63;9.70;;;10.80;37.10;;;;;;5036802;28;20201;-50
2022/02/28 09:22:42;;;;;;;13.20;9.57;;;10.90;36.70;;;;;;5036113;28;20208;-49
2022/02/28 09:25:08;;;;;;;10.53;8.80;;;10.90;36.20;;;;;;5035027;28;20423;-50
2022/02/28 09:27:34;;;;;;;11.10;9.17;;;10.90;36.30;;;;;;5036643;28;20428;-48
2022/02/28 09:30:00;;;;;;;11.70;9.03;;;11.10;36.20;;;;;;5036455;28;20465;-50
2022/02/28 09:32:26;;;;;;;10.63;8.20;;;11.30;36.00;;;;;;5037488;28;20704;-49
2022/02/28 09:34:52;;;;;;;11.73;9.50;;;11.40;36.00;;;;;;5036060;28;20511;-51
2022/02/28 09:37:17;;;;;;;11.73;8.87;;;11.50;36.10;;;;;;5036466;28;20732;-51
2022/02/28 09:39:46;;;;;;;15.33;9.60;;;11.60;35.70;;;;;;5036115;28;20191;-50
2022/02/28 09:42:13;;;;;;;16.30;10.00;;;11.70;35.40;;;;;;5053878;28;20577;-47
2022/02/28 09:44:39;;;;;;;15.43;10.70;;;11.60;34.90;;;;;;5045537;28;20443;-49
2022/02/28 09:47:06;;;;;;;13.57;10.10;;;11.40;34.90;;;;;;5036915;28;20941;-51
2022/02/28 09:49:31;;;;;;;15.27;9.80;;;11.40;35.00;;;;;;5036188;28;20456;-47
2022/02/28 09:51:57;;;;;;;15.67;10.23;;;11.40;35.20;;;;;;5035006;28;20513;-50
2022/02/28 09:54:23;;;;;;;12.67;9.10;;;11.60;35.00;;;;;;5034331;28;20193;-51
2022/02/28 09:56:50;;;;;;;11.20;8.77;;;11.80;35.00;;;;;;5032760;28;20942;-48
2022/02/28 09:59:19;;;;;;;13.83;9.70;;;11.90;34.30;;;;;;5031247;28;20714;-48
2022/02/28 10:01:45;;;;;;;11.43;8.67;;;11.90;34.60;;;;;;5033441;28;20828;-49
2022/02/28 10:04:16;;;;;;;11.13;8.57;;;12.00;34.40;;;;;;5032739;28;20424;-52
2022/02/28 10:06:43;;;;;;;10.43;9.20;;;12.10;34.00;;;;;;5033305;28;20432;-47
2022/02/28 10:09:15;;;;;;;11.17;9.40;;;12.20;33.80;;;;;;5032549;28;20428;-47
2022/02/28 10:11:41;;;;;;;12.83;9.60;;;12.50;33.50;;;;;;5032835;28;20424;-49
2022/02/28 10:14:09;;;;;;;11.13;9.30;;;12.70;33.20;;;;;;5031709;28;20431;-50
2022/02/28 10:16:34;;;;;;;12.23;10.10;;;12.60;32.80;;;;;;5032691;28;20426;-50
2022/02/28 10:19:01;;;;;;;10.87;9.17;;;12.50;33.00;;;;;;5030584;28;20483;-52
2022/02/28 10:21:39;;;;;;;11.83;9.53;;;12.60;32.70;;;;;;5032988;28;20198;-48
2022/02/28 10:24:07;;;;;;;10.07;8.47;;;12.60;32.90;;;;;;5031905;28;20439;-51
2022/02/28 10:26:41;;;;;;;9.77;8.67;;;12.60;32.40;;;;;;5033269;28;20478;-47
2022/02/28 10:29:09;;;;;;;11.57;9.43;;;12.80;32.00;;;;;;5032455;28;20442;-50
2022/02/28 10:31:38;;;;;;;11.63;8.60;;;12.80;32.00;;;;;;5034384;28;20511;-48
2022/02/28 10:34:22;;;;;;;13.93;9.67;;;12.90;31.90;;;;;;5032217;28;20455;-50
2022/02/28 10:36:57;;;;;;;15.90;10.03;;;13.00;31.80;;;;;;5033087;28;20851;-48
2022/02/28 10:39:28;;;;;;;11.97;8.67;;;13.10;31.80;;;;;;5032443;28;21072;-50
2022/02/28 10:41:57;;;;;;;10.47;8.70;;;13.40;31.80;;;;;;5047859;28;20439;-49
2022/02/28 10:44:23;;;;;;;11.37;8.97;;;13.50;31.50;;;;;;5041991;28;20494;-45
2022/02/28 10:46:50;;;;;;;11.07;8.97;;;13.60;30.90;;;;;;5032749;28;21068;-50
2022/02/28 10:49:17;;;;;;;9.80;8.00;;;13.40;30.50;;;;;;5032295;28;20942;-44
2022/02/28 10:51:52;;;;;;;12.70;9.00;;;13.50;30.40;;;;;;5032642;28;20919;-50
2022/02/28 10:54:27;;;;;;;10.17;9.17;;;13.70;30.10;;;;;;5031577;28;20799;-47
2022/02/28 10:57:12;;;;;;;12.97;9.30;;;14.00;30.10;;;;;;5032563;28;20450;-45
2022/02/28 10:59:41;;;;;;;11.37;8.93;;;14.10;29.50;;;;;;5032106;28;20480;-45
2022/02/28 11:02:07;;;;;;;11.40;9.43;;;13.80;29.50;;;;;;5032479;28;20929;-45
2022/02/28 11:04:34;;;;;;;12.97;8.90;;;13.60;29.70;;;;;;5031220;28;20476;-46
2022/02/28 11:07:01;;;;;;;11.60;9.60;;;13.40;29.50;;;;;;5032408;28;20924;-46
2022/02/28 11:09:31;;;;;;;11.33;8.83;;;13.60;30.00;;;;;;5032017;28;20436;-46
2022/02/28 11:12:15;;;;;;;11.73;9.43;;;13.90;30.00;;;;;;5030897;28;20451;-50
2022/02/28 11:14:41;;;;;;;9.93;8.40;;;14.40;29.60;;;;;;5031159;28;20923;-48
2022/02/28 11:17:07;;;;;;;11.83;8.80;;;14.30;29.10;;;;;;5032223;28;20423;-46
2022/02/28 11:19:32;;;;;;;9.30;8.33;;;14.40;29.10;;;;;;5031413;28;20240;-52
2022/02/28 11:21:58;;;;;;;10.73;9.60;;;14.60;28.70;;;;;;5031801;28;20189;-50
2022/02/28 11:24:24;;;;;;;10.47;8.53;;;15.00;29.00;;;;;;5031057;28;20244;-47
2022/02/28 11:26:49;;;;;;;11.20;9.17;;;15.30;28.50;;;;;;5032031;28;20193;-46
2022/02/28 11:29:15;;;;;;;9.73;8.60;;;15.10;28.50;;;;;;5031273;28;20204;-47
2022/02/28 11:31:40;;;;;;;9.80;8.80;;;15.40;28.30;;;;;;5033202;28;20324;-52
2022/02/28 11:34:09;;;;;;;10.70;8.43;;;15.20;28.20;;;;;;5030712;28;20669;-52
2022/02/28 11:36:57;;;;;;;9.80;8.13;;;15.40;28.30;;;;;;5031802;28;20212;-50
2022/02/28 11:39:37;;;;;;;10.27;9.17;;;15.60;28.20;;;;;;5029587;28;20562;-46
2022/02/28 11:42:05;;;;;;;12.07;9.80;;;15.80;27.90;;;;;;5047350;28;21001;-51
2022/02/28 11:44:52;;;;;;;11.63;9.10;;;15.70;27.10;;;;;;5041103;28;20432;-48
2022/02/28 11:47:19;;;;;;;11.00;8.60;;;15.70;27.40;;;;;;5031633;28;20494;-52
2022/02/28 11:49:46;;;;;;;10.20;8.63;;;15.80;27.40;;;;;;5030917;28;20478;-45
2022/02/28 11:52:47;;;;;;;10.87;8.93;;;15.90;27.30;;;;;;5031386;28;20431;-52
2022/02/28 11:55:15;;;;;;;13.97;9.07;;;15.40;27.00;;;;;;4967579;28;20453;-49
2022/02/28 11:57:59;;;;;;;10.00;8.60;;;15.40;27.70;;;;;;5019004;28;20537;-47
2022/02/28 12:00:46;;;;;;;10.20;8.37;;;15.70;27.60;;;;;;5031382;28;20444;-44
2022/02/28 12:03:21;;;;;;;10.57;8.50;;;16.10;27.00;;;;;;5030697;28;20424;-46
2022/02/28 12:05:47;;;;;;;9.90;8.10;;;15.70;26.80;;;;;;5029615;28;20439;-45
2022/02/28 12:08:17;;;;;;;12.30;9.03;;;15.70;27.00;;;;;;5030528;28;20966;-48
2022/02/28 12:10:56;;;;;;;11.30;9.27;;;16.10;26.10;;;;;;5031168;28;20198;-48
2022/02/28 12:13:37;;;;;;;9.93;7.73;;;16.20;26.10;;;;;;5030278;28;20428;-46
2022/02/28 12:19:27;;;;;;;10.63;8.30;;;16.70;26.20;;;;;;5003990;28;20906;-47
2022/02/28 12:22:00;;;;;;;9.70;7.70;;;16.70;26.10;;;;;;5030932;28;20779;-51
2022/02/28 12:25:04;;;;;;;12.00;7.60;;;16.60;25.40;;;;;;5029800;28;20515;-47
2022/02/28 12:27:37;;;;;;;8.23;7.30;;;16.40;25.50;;;;;;5030632;28;20485;-46
2022/02/28 12:30:36;;;;;;;9.60;6.60;;;16.50;25.50;;;;;;5030640;28;20786;-46
2022/02/28 12:33:03;;;;;;;8.67;7.03;;;16.40;24.60;;;;;;5028693;28;20440;-47
2022/02/28 12:35:50;;;;;;;8.53;7.43;;;16.70;25.20;;;;;;5030005;28;20431;-49
2022/02/28 12:38:17;;;;;;;9.37;8.27;;;17.10;25.50;;;;;;5029912;28;20887;-48
2022/02/28 12:40:50;;;;;;;12.07;9.00;;;17.10;25.30;;;;;;5035799;28;20899;-51
2022/02/28 12:43:21;;;;;;;11.30;8.30;;;17.20;25.10;;;;;;5049579;28;20474;-47
2022/02/28 12:45:49;;;;;;;9.23;7.90;;;17.60;24.90;;;;;;5030274;28;21318;-47
2022/02/28 12:48:19;;;;;;;9.63;8.63;;;17.60;24.40;;;;;;5030001;28;20428;-46